sensor_id;sensor_type;location;lat;lon;timestamp;P1;durP1;ratioP1;P2;durP2;ratioP2
42246;SDS011;27913;42.722;23.268;2022-08-21T00:03:28;9.60;;;4.13;;
42246;SDS011;27913;42.722;23.268;2022-08-21T00:05:54;9.57;;;4.30;;
42246;SDS011;27913;42.722;23.268;2022-08-21T00:08:22;12.10;;;4.57;;
42246;SDS011;27913;42.722;23.268;2022-08-21T00:10:47;14.85;;;5.18;;
42246;SDS011;27913;42.722;23.268;2022-08-21T00:13:13;14.60;;;6.30;;
42246;SDS011;27913;42.722;23.268;2022-08-21T00:15:39;12.10;;;5.80;;
42246;SDS011;27913;42.722;23.268;2022-08-21T00:18:06;12.80;;;5.30;;
42246;SDS011;27913;42.722;23.268;2022-08-21T00:20:33;11.02;;;5.57;;
42246;SDS011;27913;42.722;23.268;2022-08-21T00:22:59;14.55;;;5.35;;
42246;SDS011;27913;42.722;23.268;2022-08-21T00:25:25;9.23;;;4.85;;
42246;SDS011;27913;42.722;23.268;2022-08-21T00:27:52;11.23;;;5.60;;
42246;SDS011;27913;42.722;23.268;2022-08-21T00:30:19;11.20;;;5.28;;
42246;SDS011;27913;42.722;23.268;2022-08-21T00:32:46;13.43;;;5.93;;
42246;SDS011;27913;42.722;23.268;2022-08-21T00:35:13;12.65;;;5.15;;
42246;SDS011;27913;42.722;23.268;2022-08-21T00:37:41;13.17;;;5.40;;
42246;SDS011;27913;42.722;23.268;2022-08-21T00:40:09;10.07;;;4.85;;
42246;SDS011;27913;42.722;23.268;2022-08-21T00:42:37;9.98;;;5.20;;
42246;SDS011;27913;42.722;23.268;2022-08-21T00:45:04;13.13;;;5.53;;
42246;SDS011;27913;42.722;23.268;2022-08-21T00:47:30;13.20;;;6.15;;
42246;SDS011;27913;42.722;23.268;2022-08-21T00:49:56;13.93;;;6.10;;
42246;SDS011;27913;42.722;23.268;2022-08-21T00:52:22;15.35;;;6.55;;
42246;SDS011;27913;42.722;23.268;2022-08-21T00:54:51;13.93;;;6.00;;
42246;SDS011;27913;42.722;23.268;2022-08-21T00:57:31;12.75;;;5.88;;
42246;SDS011;27913;42.722;23.268;2022-08-21T01:00:04;13.07;;;6.25;;
42246;SDS011;27913;42.722;23.268;2022-08-21T01:02:33;14.80;;;6.75;;
42246;SDS011;27913;42.722;23.268;2022-08-21T01:04:58;12.85;;;5.68;;
42246;SDS011;27913;42.722;23.268;2022-08-21T01:07:24;11.80;;;6.03;;
42246;SDS011;27913;42.722;23.268;2022-08-21T01:09:50;14.02;;;6.40;;
42246;SDS011;27913;42.722;23.268;2022-08-21T01:12:16;12.15;;;5.88;;
42246;SDS011;27913;42.722;23.268;2022-08-21T01:14:43;14.55;;;6.43;;
42246;SDS011;27913;42.722;23.268;2022-08-21T01:17:10;10.70;;;5.25;;
42246;SDS011;27913;42.722;23.268;2022-08-21T01:19:38;14.32;;;5.25;;
42246;SDS011;27913;42.722;23.268;2022-08-21T01:22:05;13.35;;;5.38;;
42246;SDS011;27913;42.722;23.268;2022-08-21T01:24:30;13.80;;;4.88;;
42246;SDS011;27913;42.722;23.268;2022-08-21T01:26:56;11.30;;;4.90;;
42246;SDS011;27913;42.722;23.268;2022-08-21T01:29:37;9.57;;;4.60;;
42246;SDS011;27913;42.722;23.268;2022-08-21T01:32:09;9.18;;;3.55;;
42246;SDS011;27913;42.722;23.268;2022-08-21T01:34:42;7.40;;;3.55;;
42246;SDS011;27913;42.722;23.268;2022-08-21T01:37:10;8.70;;;3.83;;
42246;SDS011;27913;42.722;23.268;2022-08-21T01:39:36;12.48;;;4.82;;
42246;SDS011;27913;42.722;23.268;2022-08-21T01:42:03;10.10;;;3.97;;
42246;SDS011;27913;42.722;23.268;2022-08-21T01:44:29;7.40;;;3.65;;
42246;SDS011;27913;42.722;23.268;2022-08-21T01:46:55;9.82;;;4.18;;
42246;SDS011;27913;42.722;23.268;2022-08-21T01:49:23;8.48;;;3.75;;
42246;SDS011;27913;42.722;23.268;2022-08-21T01:51:49;7.85;;;3.55;;
42246;SDS011;27913;42.722;23.268;2022-08-21T01:54:14;9.73;;;3.85;;
42246;SDS011;27913;42.722;23.268;2022-08-21T01:56:41;7.25;;;3.75;;
42246;SDS011;27913;42.722;23.268;2022-08-21T01:59:10;8.77;;;3.60;;
42246;SDS011;27913;42.722;23.268;2022-08-21T02:01:39;9.02;;;3.65;;
42246;SDS011;27913;42.722;23.268;2022-08-21T02:04:06;9.38;;;3.72;;
42246;SDS011;27913;42.722;23.268;2022-08-21T02:06:33;7.53;;;3.55;;
42246;SDS011;27913;42.722;23.268;2022-08-21T02:09:00;9.40;;;4.32;;
42246;SDS011;27913;42.722;23.268;2022-08-21T02:11:26;6.80;;;3.83;;
42246;SDS011;27913;42.722;23.268;2022-08-21T02:13:51;10.43;;;3.97;;
42246;SDS011;27913;42.722;23.268;2022-08-21T02:16:17;8.07;;;4.07;;
42246;SDS011;27913;42.722;23.268;2022-08-21T02:18:42;15.18;;;6.28;;
42246;SDS011;27913;42.722;23.268;2022-08-21T02:21:08;11.70;;;5.05;;
42246;SDS011;27913;42.722;23.268;2022-08-21T02:23:34;8.30;;;4.45;;
42246;SDS011;27913;42.722;23.268;2022-08-21T02:26:01;8.27;;;3.97;;
42246;SDS011;27913;42.722;23.268;2022-08-21T02:28:28;11.00;;;4.30;;
42246;SDS011;27913;42.722;23.268;2022-08-21T02:30:54;11.90;;;4.28;;
42246;SDS011;27913;42.722;23.268;2022-08-21T02:33:21;9.45;;;4.18;;
42246;SDS011;27913;42.722;23.268;2022-08-21T02:35:48;7.93;;;3.85;;
42246;SDS011;27913;42.722;23.268;2022-08-21T02:38:16;10.75;;;4.10;;
42246;SDS011;27913;42.722;23.268;2022-08-21T02:40:46;10.02;;;4.15;;
42246;SDS011;27913;42.722;23.268;2022-08-21T02:43:13;11.10;;;4.10;;
42246;SDS011;27913;42.722;23.268;2022-08-21T02:45:40;13.40;;;4.03;;
42246;SDS011;27913;42.722;23.268;2022-08-21T02:48:07;9.80;;;3.92;;
42246;SDS011;27913;42.722;23.268;2022-08-21T02:50:37;7.93;;;3.75;;
42246;SDS011;27913;42.722;23.268;2022-08-21T02:53:07;8.30;;;3.92;;
42246;SDS011;27913;42.722;23.268;2022-08-21T02:55:34;7.30;;;3.83;;
42246;SDS011;27913;42.722;23.268;2022-08-21T02:58:02;10.88;;;4.03;;
42246;SDS011;27913;42.722;23.268;2022-08-21T03:00:32;7.30;;;3.50;;
42246;SDS011;27913;42.722;23.268;2022-08-21T03:02:59;10.23;;;4.13;;
42246;SDS011;27913;42.722;23.268;2022-08-21T03:05:25;9.10;;;4.05;;
42246;SDS011;27913;42.722;23.268;2022-08-21T03:07:53;9.45;;;4.35;;
42246;SDS011;27913;42.722;23.268;2022-08-21T03:10:20;8.80;;;3.88;;
42246;SDS011;27913;42.722;23.268;2022-08-21T03:12:47;7.53;;;4.38;;
42246;SDS011;27913;42.722;23.268;2022-08-21T03:15:14;11.77;;;4.13;;
42246;SDS011;27913;42.722;23.268;2022-08-21T03:17:40;8.20;;;4.15;;
42246;SDS011;27913;42.722;23.268;2022-08-21T03:20:07;9.45;;;4.38;;
42246;SDS011;27913;42.722;23.268;2022-08-21T03:22:33;9.20;;;4.30;;
42246;SDS011;27913;42.722;23.268;2022-08-21T03:24:59;9.90;;;4.05;;
42246;SDS011;27913;42.722;23.268;2022-08-21T03:27:26;11.02;;;4.38;;
42246;SDS011;27913;42.722;23.268;2022-08-21T03:29:53;7.90;;;4.03;;
42246;SDS011;27913;42.722;23.268;2022-08-21T03:32:20;9.00;;;4.20;;
42246;SDS011;27913;42.722;23.268;2022-08-21T03:34:45;12.27;;;4.55;;
42246;SDS011;27913;42.722;23.268;2022-08-21T03:37:12;10.90;;;5.00;;
42246;SDS011;27913;42.722;23.268;2022-08-21T03:39:38;9.85;;;3.92;;
42246;SDS011;27913;42.722;23.268;2022-08-21T03:42:04;9.45;;;4.43;;
42246;SDS011;27913;42.722;23.268;2022-08-21T03:44:30;12.50;;;4.53;;
42246;SDS011;27913;42.722;23.268;2022-08-21T03:46:56;9.43;;;5.07;;
42246;SDS011;27913;42.722;23.268;2022-08-21T03:49:22;9.52;;;4.35;;
42246;SDS011;27913;42.722;23.268;2022-08-21T03:51:48;9.13;;;4.40;;
42246;SDS011;27913;42.722;23.268;2022-08-21T03:54:14;14.45;;;4.80;;
42246;SDS011;27913;42.722;23.268;2022-08-21T03:56:39;12.77;;;4.95;;
42246;SDS011;27913;42.722;23.268;2022-08-21T03:59:05;11.20;;;4.68;;
42246;SDS011;27913;42.722;23.268;2022-08-21T04:01:31;8.25;;;4.18;;
42246;SDS011;27913;42.722;23.268;2022-08-21T04:03:56;10.80;;;5.57;;
42246;SDS011;27913;42.722;23.268;2022-08-21T04:06:22;11.73;;;5.45;;
42246;SDS011;27913;42.722;23.268;2022-08-21T04:08:48;10.85;;;5.25;;
42246;SDS011;27913;42.722;23.268;2022-08-21T04:11:13;11.50;;;5.63;;
42246;SDS011;27913;42.722;23.268;2022-08-21T04:13:39;10.88;;;5.65;;
42246;SDS011;27913;42.722;23.268;2022-08-21T04:16:05;14.10;;;5.03;;
42246;SDS011;27913;42.722;23.268;2022-08-21T04:18:31;11.82;;;5.70;;
42246;SDS011;27913;42.722;23.268;2022-08-21T04:20:57;11.68;;;6.30;;
42246;SDS011;27913;42.722;23.268;2022-08-21T04:23:24;12.45;;;6.35;;
42246;SDS011;27913;42.722;23.268;2022-08-21T04:25:54;15.63;;;6.80;;
42246;SDS011;27913;42.722;23.268;2022-08-21T04:28:24;11.63;;;6.30;;
42246;SDS011;27913;42.722;23.268;2022-08-21T04:30:52;16.55;;;6.75;;
42246;SDS011;27913;42.722;23.268;2022-08-21T04:33:19;12.73;;;6.13;;
42246;SDS011;27913;42.722;23.268;2022-08-21T04:35:45;14.95;;;5.97;;
42246;SDS011;27913;42.722;23.268;2022-08-21T04:38:11;15.40;;;6.53;;
42246;SDS011;27913;42.722;23.268;2022-08-21T04:40:37;13.55;;;6.65;;
42246;SDS011;27913;42.722;23.268;2022-08-21T04:43:06;10.95;;;5.72;;
42246;SDS011;27913;42.722;23.268;2022-08-21T04:45:38;13.18;;;5.88;;
42246;SDS011;27913;42.722;23.268;2022-08-21T04:48:07;16.33;;;7.68;;
42246;SDS011;27913;42.722;23.268;2022-08-21T04:53:26;17.17;;;8.52;;
42246;SDS011;27913;42.722;23.268;2022-08-21T04:55:52;17.75;;;8.68;;
42246;SDS011;27913;42.722;23.268;2022-08-21T04:58:20;18.52;;;8.13;;
42246;SDS011;27913;42.722;23.268;2022-08-21T05:00:47;18.35;;;9.25;;
42246;SDS011;27913;42.722;23.268;2022-08-21T05:03:13;16.38;;;7.88;;
42246;SDS011;27913;42.722;23.268;2022-08-21T05:05:41;16.50;;;7.13;;
42246;SDS011;27913;42.722;23.268;2022-08-21T05:08:08;14.65;;;7.68;;
42246;SDS011;27913;42.722;23.268;2022-08-21T05:10:37;15.00;;;7.28;;
42246;SDS011;27913;42.722;23.268;2022-08-21T05:13:03;15.88;;;7.82;;
42246;SDS011;27913;42.722;23.268;2022-08-21T05:15:30;14.98;;;7.82;;
42246;SDS011;27913;42.722;23.268;2022-08-21T05:17:56;19.30;;;7.88;;
42246;SDS011;27913;42.722;23.268;2022-08-21T05:20:22;19.23;;;8.77;;
42246;SDS011;27913;42.722;23.268;2022-08-21T05:22:47;21.60;;;8.98;;
42246;SDS011;27913;42.722;23.268;2022-08-21T05:25:13;19.70;;;8.43;;
42246;SDS011;27913;42.722;23.268;2022-08-21T05:27:38;21.58;;;8.70;;
42246;SDS011;27913;42.722;23.268;2022-08-21T05:30:05;18.95;;;7.80;;
42246;SDS011;27913;42.722;23.268;2022-08-21T05:32:32;14.45;;;7.07;;
42246;SDS011;27913;42.722;23.268;2022-08-21T05:34:58;15.80;;;7.28;;
42246;SDS011;27913;42.722;23.268;2022-08-21T05:37:24;15.30;;;7.15;;
42246;SDS011;27913;42.722;23.268;2022-08-21T05:39:50;13.65;;;6.95;;
42246;SDS011;27913;42.722;23.268;2022-08-21T05:42:15;12.20;;;6.18;;
42246;SDS011;27913;42.722;23.268;2022-08-21T05:44:41;12.15;;;6.60;;
42246;SDS011;27913;42.722;23.268;2022-08-21T05:47:08;17.55;;;6.97;;
42246;SDS011;27913;42.722;23.268;2022-08-21T05:49:34;14.75;;;6.45;;
42246;SDS011;27913;42.722;23.268;2022-08-21T05:52:00;17.15;;;7.88;;
42246;SDS011;27913;42.722;23.268;2022-08-21T05:54:26;17.15;;;7.80;;
42246;SDS011;27913;42.722;23.268;2022-08-21T05:56:52;15.88;;;7.80;;
42246;SDS011;27913;42.722;23.268;2022-08-21T05:59:18;19.23;;;7.20;;
42246;SDS011;27913;42.722;23.268;2022-08-21T06:01:44;15.85;;;7.82;;
42246;SDS011;27913;42.722;23.268;2022-08-21T06:04:10;13.98;;;7.38;;
42246;SDS011;27913;42.722;23.268;2022-08-21T06:06:36;14.98;;;7.85;;
42246;SDS011;27913;42.722;23.268;2022-08-21T06:09:04;17.83;;;8.00;;
42246;SDS011;27913;42.722;23.268;2022-08-21T06:11:30;17.17;;;8.48;;
42246;SDS011;27913;42.722;23.268;2022-08-21T06:13:56;17.92;;;8.38;;
42246;SDS011;27913;42.722;23.268;2022-08-21T06:16:22;19.95;;;8.90;;
42246;SDS011;27913;42.722;23.268;2022-08-21T06:18:50;23.05;;;10.43;;
42246;SDS011;27913;42.722;23.268;2022-08-21T06:21:16;20.55;;;10.27;;
42246;SDS011;27913;42.722;23.268;2022-08-21T06:23:41;14.98;;;8.20;;
42246;SDS011;27913;42.722;23.268;2022-08-21T06:26:10;18.52;;;8.90;;
42246;SDS011;27913;42.722;23.268;2022-08-21T06:28:37;15.90;;;8.70;;
42246;SDS011;27913;42.722;23.268;2022-08-21T06:31:14;22.02;;;9.50;;
42246;SDS011;27913;42.722;23.268;2022-08-21T06:33:41;17.35;;;8.38;;
42246;SDS011;27913;42.722;23.268;2022-08-21T06:36:07;17.20;;;8.70;;
42246;SDS011;27913;42.722;23.268;2022-08-21T06:38:33;19.48;;;8.57;;
42246;SDS011;27913;42.722;23.268;2022-08-21T06:40:59;21.25;;;8.68;;
42246;SDS011;27913;42.722;23.268;2022-08-21T06:43:24;19.90;;;9.50;;
42246;SDS011;27913;42.722;23.268;2022-08-21T06:45:49;16.33;;;8.05;;
42246;SDS011;27913;42.722;23.268;2022-08-21T06:48:16;15.60;;;8.05;;
42246;SDS011;27913;42.722;23.268;2022-08-21T06:50:41;16.33;;;8.55;;
42246;SDS011;27913;42.722;23.268;2022-08-21T06:53:08;14.60;;;7.57;;
42246;SDS011;27913;42.722;23.268;2022-08-21T06:55:36;16.58;;;7.80;;
42246;SDS011;27913;42.722;23.268;2022-08-21T06:58:03;17.30;;;8.68;;
42246;SDS011;27913;42.722;23.268;2022-08-21T07:00:29;14.35;;;7.15;;
42246;SDS011;27913;42.722;23.268;2022-08-21T07:02:55;20.00;;;8.05;;
42246;SDS011;27913;42.722;23.268;2022-08-21T07:05:21;15.57;;;7.30;;
42246;SDS011;27913;42.722;23.268;2022-08-21T07:07:46;16.00;;;7.32;;
42246;SDS011;27913;42.722;23.268;2022-08-21T07:10:13;13.18;;;6.40;;
42246;SDS011;27913;42.722;23.268;2022-08-21T07:12:39;14.85;;;6.53;;
42246;SDS011;27913;42.722;23.268;2022-08-21T07:15:05;11.60;;;5.97;;
42246;SDS011;27913;42.722;23.268;2022-08-21T07:17:31;14.23;;;6.90;;
42246;SDS011;27913;42.722;23.268;2022-08-21T07:19:57;14.32;;;7.07;;
42246;SDS011;27913;42.722;23.268;2022-08-21T07:22:23;14.98;;;7.05;;
42246;SDS011;27913;42.722;23.268;2022-08-21T07:24:49;15.85;;;6.20;;
42246;SDS011;27913;42.722;23.268;2022-08-21T07:27:14;13.25;;;6.55;;
42246;SDS011;27913;42.722;23.268;2022-08-21T07:29:40;14.27;;;7.53;;
42246;SDS011;27913;42.722;23.268;2022-08-21T07:32:06;14.93;;;7.13;;
42246;SDS011;27913;42.722;23.268;2022-08-21T07:34:31;13.68;;;6.30;;
42246;SDS011;27913;42.722;23.268;2022-08-21T07:36:57;13.43;;;6.97;;
42246;SDS011;27913;42.722;23.268;2022-08-21T07:39:23;16.90;;;6.82;;
42246;SDS011;27913;42.722;23.268;2022-08-21T07:41:49;13.75;;;6.90;;
42246;SDS011;27913;42.722;23.268;2022-08-21T07:44:18;13.48;;;6.10;;
42246;SDS011;27913;42.722;23.268;2022-08-21T07:46:43;13.40;;;6.20;;
42246;SDS011;27913;42.722;23.268;2022-08-21T07:49:09;13.77;;;6.07;;
42246;SDS011;27913;42.722;23.268;2022-08-21T07:51:34;13.07;;;6.63;;
42246;SDS011;27913;42.722;23.268;2022-08-21T07:54:00;13.18;;;6.82;;
42246;SDS011;27913;42.722;23.268;2022-08-21T07:56:27;10.50;;;5.07;;
42246;SDS011;27913;42.722;23.268;2022-08-21T07:58:54;16.83;;;7.13;;
42246;SDS011;27913;42.722;23.268;2022-08-21T08:01:22;11.98;;;5.40;;
42246;SDS011;27913;42.722;23.268;2022-08-21T08:03:48;12.38;;;5.80;;
42246;SDS011;27913;42.722;23.268;2022-08-21T08:06:14;12.32;;;5.05;;
42246;SDS011;27913;42.722;23.268;2022-08-21T08:08:41;12.70;;;6.00;;
42246;SDS011;27913;42.722;23.268;2022-08-21T08:11:08;11.10;;;4.72;;
42246;SDS011;27913;42.722;23.268;2022-08-21T08:13:50;11.20;;;5.25;;
42246;SDS011;27913;42.722;23.268;2022-08-21T08:16:17;12.63;;;5.63;;
42246;SDS011;27913;42.722;23.268;2022-08-21T08:18:44;9.50;;;4.97;;
42246;SDS011;27913;42.722;23.268;2022-08-21T08:21:11;11.60;;;6.00;;
42246;SDS011;27913;42.722;23.268;2022-08-21T08:23:37;10.10;;;5.10;;
42246;SDS011;27913;42.722;23.268;2022-08-21T08:26:03;10.73;;;5.05;;
42246;SDS011;27913;42.722;23.268;2022-08-21T08:28:30;10.75;;;4.88;;
42246;SDS011;27913;42.722;23.268;2022-08-21T08:30:56;11.18;;;4.78;;
42246;SDS011;27913;42.722;23.268;2022-08-21T08:33:22;9.85;;;5.35;;
42246;SDS011;27913;42.722;23.268;2022-08-21T08:35:49;11.15;;;5.80;;
42246;SDS011;27913;42.722;23.268;2022-08-21T08:38:16;9.57;;;4.65;;
42246;SDS011;27913;42.722;23.268;2022-08-21T08:43:32;9.23;;;4.53;;
42246;SDS011;27913;42.722;23.268;2022-08-21T08:45:59;9.80;;;4.68;;
42246;SDS011;27913;42.722;23.268;2022-08-21T08:48:51;8.95;;;4.03;;
42246;SDS011;27913;42.722;23.268;2022-08-21T08:51:23;10.88;;;5.15;;
42246;SDS011;27913;42.722;23.268;2022-08-21T08:53:56;9.02;;;4.57;;
42246;SDS011;27913;42.722;23.268;2022-08-21T08:56:29;11.07;;;4.72;;
42246;SDS011;27913;42.722;23.268;2022-08-21T08:59:19;11.73;;;5.82;;
42246;SDS011;27913;42.722;23.268;2022-08-21T09:01:45;9.02;;;3.97;;
42246;SDS011;27913;42.722;23.268;2022-08-21T09:04:11;9.55;;;4.35;;
42246;SDS011;27913;42.722;23.268;2022-08-21T09:09:29;8.48;;;3.85;;
42246;SDS011;27913;42.722;23.268;2022-08-21T09:23:44;17.38;;;3.88;;
42246;SDS011;27913;42.722;23.268;2022-08-21T09:26:23;8.57;;;2.95;;
42246;SDS011;27913;42.722;23.268;2022-08-21T09:28:52;9.10;;;3.80;;
42246;SDS011;27913;42.722;23.268;2022-08-21T09:31:26;8.18;;;3.75;;
42246;SDS011;27913;42.722;23.268;2022-08-21T09:34:06;10.45;;;3.92;;
42246;SDS011;27913;42.722;23.268;2022-08-21T09:36:51;7.10;;;3.00;;
42246;SDS011;27913;42.722;23.268;2022-08-21T09:39:24;8.73;;;3.17;;
42246;SDS011;27913;42.722;23.268;2022-08-21T09:41:58;6.20;;;2.85;;
42246;SDS011;27913;42.722;23.268;2022-08-21T09:44:31;12.25;;;3.63;;
42246;SDS011;27913;42.722;23.268;2022-08-21T09:47:04;8.70;;;3.30;;
42246;SDS011;27913;42.722;23.268;2022-08-21T09:49:30;6.93;;;3.15;;
42246;SDS011;27913;42.722;23.268;2022-08-21T09:52:02;7.90;;;3.33;;
42246;SDS011;27913;42.722;23.268;2022-08-21T09:54:30;7.57;;;2.83;;
42246;SDS011;27913;42.722;23.268;2022-08-21T09:57:22;7.97;;;3.20;;
42246;SDS011;27913;42.722;23.268;2022-08-21T10:00:08;8.32;;;3.30;;
42246;SDS011;27913;42.722;23.268;2022-08-21T10:02:40;6.53;;;3.08;;
42246;SDS011;27913;42.722;23.268;2022-08-21T10:05:15;8.43;;;4.18;;
42246;SDS011;27913;42.722;23.268;2022-08-21T10:07:43;10.25;;;3.53;;
42246;SDS011;27913;42.722;23.268;2022-08-21T10:10:14;7.80;;;3.78;;
42246;SDS011;27913;42.722;23.268;2022-08-21T10:18:04;8.48;;;3.40;;
42246;SDS011;27913;42.722;23.268;2022-08-21T10:20:42;9.20;;;3.35;;
42246;SDS011;27913;42.722;23.268;2022-08-21T10:25:50;10.10;;;3.67;;
42246;SDS011;27913;42.722;23.268;2022-08-21T10:28:40;6.82;;;3.13;;
42246;SDS011;27913;42.722;23.268;2022-08-21T10:31:18;7.53;;;3.72;;
42246;SDS011;27913;42.722;23.268;2022-08-21T10:39:56;8.52;;;3.35;;
42246;SDS011;27913;42.722;23.268;2022-08-21T10:42:33;5.50;;;2.85;;
42246;SDS011;27913;42.722;23.268;2022-08-21T10:47:41;6.82;;;3.30;;
42246;SDS011;27913;42.722;23.268;2022-08-21T10:50:16;5.85;;;3.03;;
42246;SDS011;27913;42.722;23.268;2022-08-21T10:55:27;5.55;;;2.90;;
42246;SDS011;27913;42.722;23.268;2022-08-21T11:00:50;7.85;;;2.97;;
42246;SDS011;27913;42.722;23.268;2022-08-21T11:06:23;7.72;;;2.83;;
42246;SDS011;27913;42.722;23.268;2022-08-21T11:08:55;6.75;;;2.70;;
42246;SDS011;27913;42.722;23.268;2022-08-21T11:12:09;7.82;;;3.10;;
42246;SDS011;27913;42.722;23.268;2022-08-21T11:14:24;8.27;;;3.30;;
42246;SDS011;27913;42.722;23.268;2022-08-21T11:19:28;6.63;;;2.75;;
42246;SDS011;27913;42.722;23.268;2022-08-21T11:22:14;9.07;;;3.33;;
42246;SDS011;27913;42.722;23.268;2022-08-21T11:27:49;12.20;;;3.47;;
42246;SDS011;27913;42.722;23.268;2022-08-21T11:30:21;6.82;;;3.10;;
42246;SDS011;27913;42.722;23.268;2022-08-21T11:43:19;9.73;;;3.60;;
42246;SDS011;27913;42.722;23.268;2022-08-21T11:45:58;8.70;;;3.75;;
42246;SDS011;27913;42.722;23.268;2022-08-21T11:48:39;7.10;;;3.35;;
42246;SDS011;27913;42.722;23.268;2022-08-21T11:51:16;8.27;;;3.45;;
42246;SDS011;27913;42.722;23.268;2022-08-21T11:56:33;9.63;;;3.72;;
42246;SDS011;27913;42.722;23.268;2022-08-21T11:59:09;7.90;;;3.63;;
42246;SDS011;27913;42.722;23.268;2022-08-21T12:01:43;12.30;;;3.88;;
42246;SDS011;27913;42.722;23.268;2022-08-21T12:04:23;8.77;;;3.20;;
42246;SDS011;27913;42.722;23.268;2022-08-21T12:06:49;8.38;;;3.25;;
42246;SDS011;27913;42.722;23.268;2022-08-21T12:11:59;5.55;;;2.63;;
42246;SDS011;27913;42.722;23.268;2022-08-21T12:14:48;8.05;;;3.17;;
42246;SDS011;27913;42.722;23.268;2022-08-21T12:17:19;5.50;;;2.28;;
42246;SDS011;27913;42.722;23.268;2022-08-21T12:19:56;7.97;;;2.78;;
42246;SDS011;27913;42.722;23.268;2022-08-21T12:22:24;6.47;;;2.85;;
42246;SDS011;27913;42.722;23.268;2022-08-21T12:25:08;4.38;;;2.38;;
42246;SDS011;27913;42.722;23.268;2022-08-21T12:27:52;7.78;;;2.80;;
42246;SDS011;27913;42.722;23.268;2022-08-21T12:33:05;7.07;;;3.08;;
42246;SDS011;27913;42.722;23.268;2022-08-21T12:35:44;6.03;;;2.25;;
42246;SDS011;27913;42.722;23.268;2022-08-21T12:38:31;7.88;;;2.88;;
42246;SDS011;27913;42.722;23.268;2022-08-21T12:45:56;5.07;;;2.47;;
42246;SDS011;27913;42.722;23.268;2022-08-21T12:48:30;6.65;;;2.83;;
42246;SDS011;27913;42.722;23.268;2022-08-21T12:51:09;6.97;;;3.08;;
42246;SDS011;27913;42.722;23.268;2022-08-21T12:56:16;5.85;;;2.70;;
42246;SDS011;27913;42.722;23.268;2022-08-21T12:58:49;6.57;;;2.93;;
42246;SDS011;27913;42.722;23.268;2022-08-21T13:01:29;6.28;;;2.67;;
42246;SDS011;27913;42.722;23.268;2022-08-21T13:04:00;7.45;;;2.80;;
42246;SDS011;27913;42.722;23.268;2022-08-21T13:06:29;7.15;;;3.08;;
42246;SDS011;27913;42.722;23.268;2022-08-21T13:09:06;6.20;;;2.65;;
42246;SDS011;27913;42.722;23.268;2022-08-21T13:11:35;6.60;;;3.03;;
42246;SDS011;27913;42.722;23.268;2022-08-21T13:14:02;8.38;;;2.88;;
42246;SDS011;27913;42.722;23.268;2022-08-21T13:16:29;5.65;;;2.70;;
42246;SDS011;27913;42.722;23.268;2022-08-21T13:21:21;5.80;;;2.72;;
42246;SDS011;27913;42.722;23.268;2022-08-21T13:23:51;6.75;;;2.80;;
42246;SDS011;27913;42.722;23.268;2022-08-21T13:26:21;8.85;;;3.05;;
42246;SDS011;27913;42.722;23.268;2022-08-21T13:28:47;6.60;;;3.00;;
42246;SDS011;27913;42.722;23.268;2022-08-21T13:31:20;5.45;;;2.40;;
42246;SDS011;27913;42.722;23.268;2022-08-21T13:33:50;7.28;;;3.05;;
42246;SDS011;27913;42.722;23.268;2022-08-21T13:36:35;6.13;;;2.75;;
42246;SDS011;27913;42.722;23.268;2022-08-21T13:39:03;6.22;;;2.80;;
42246;SDS011;27913;42.722;23.268;2022-08-21T13:41:34;6.93;;;3.30;;
42246;SDS011;27913;42.722;23.268;2022-08-21T13:44:03;8.80;;;2.97;;
42246;SDS011;27913;42.722;23.268;2022-08-21T13:46:31;4.95;;;2.72;;
42246;SDS011;27913;42.722;23.268;2022-08-21T13:48:59;7.57;;;3.42;;
42246;SDS011;27913;42.722;23.268;2022-08-21T13:51:27;6.47;;;3.00;;
42246;SDS011;27913;42.722;23.268;2022-08-21T13:53:54;5.18;;;2.70;;
42246;SDS011;27913;42.722;23.268;2022-08-21T13:56:24;6.57;;;2.40;;
42246;SDS011;27913;42.722;23.268;2022-08-21T13:58:55;4.93;;;2.55;;
42246;SDS011;27913;42.722;23.268;2022-08-21T14:01:27;4.18;;;2.38;;
42246;SDS011;27913;42.722;23.268;2022-08-21T14:04:14;4.82;;;2.38;;
42246;SDS011;27913;42.722;23.268;2022-08-21T14:06:44;6.07;;;2.40;;
42246;SDS011;27913;42.722;23.268;2022-08-21T14:09:11;5.82;;;2.60;;
42246;SDS011;27913;42.722;23.268;2022-08-21T14:11:40;6.07;;;2.63;;
42246;SDS011;27913;42.722;23.268;2022-08-21T14:14:16;6.90;;;2.72;;
42246;SDS011;27913;42.722;23.268;2022-08-21T14:16:44;7.50;;;3.08;;
42246;SDS011;27913;42.722;23.268;2022-08-21T14:19:20;6.32;;;2.50;;
42246;SDS011;27913;42.722;23.268;2022-08-21T14:21:47;5.80;;;2.30;;
42246;SDS011;27913;42.722;23.268;2022-08-21T14:27:05;5.72;;;2.65;;
42246;SDS011;27913;42.722;23.268;2022-08-21T14:29:33;4.82;;;2.10;;
42246;SDS011;27913;42.722;23.268;2022-08-21T14:32:08;5.78;;;2.35;;
42246;SDS011;27913;42.722;23.268;2022-08-21T14:34:44;4.43;;;2.53;;
42246;SDS011;27913;42.722;23.268;2022-08-21T14:37:09;6.97;;;2.33;;
42246;SDS011;27913;42.722;23.268;2022-08-21T14:39:35;6.53;;;2.53;;
42246;SDS011;27913;42.722;23.268;2022-08-21T14:42:01;5.22;;;2.85;;
42246;SDS011;27913;42.722;23.268;2022-08-21T14:44:27;6.70;;;2.45;;
42246;SDS011;27913;42.722;23.268;2022-08-21T14:46:53;6.70;;;2.20;;
42246;SDS011;27913;42.722;23.268;2022-08-21T14:49:20;6.18;;;2.67;;
42246;SDS011;27913;42.722;23.268;2022-08-21T14:51:45;5.75;;;2.85;;
42246;SDS011;27913;42.722;23.268;2022-08-21T14:54:11;6.72;;;3.00;;
42246;SDS011;27913;42.722;23.268;2022-08-21T14:56:37;4.72;;;2.42;;
42246;SDS011;27913;42.722;23.268;2022-08-21T14:59:04;8.57;;;2.53;;
42246;SDS011;27913;42.722;23.268;2022-08-21T15:01:32;5.90;;;2.70;;
42246;SDS011;27913;42.722;23.268;2022-08-21T15:04:00;6.45;;;2.85;;
42246;SDS011;27913;42.722;23.268;2022-08-21T15:06:25;6.68;;;2.83;;
42246;SDS011;27913;42.722;23.268;2022-08-21T15:08:51;6.03;;;2.72;;
42246;SDS011;27913;42.722;23.268;2022-08-21T15:11:18;5.65;;;2.83;;
42246;SDS011;27913;42.722;23.268;2022-08-21T15:13:45;5.25;;;2.60;;
42246;SDS011;27913;42.722;23.268;2022-08-21T15:16:12;7.60;;;2.63;;
42246;SDS011;27913;42.722;23.268;2022-08-21T15:18:37;7.18;;;3.53;;
42246;SDS011;27913;42.722;23.268;2022-08-21T15:21:03;7.57;;;3.28;;
42246;SDS011;27913;42.722;23.268;2022-08-21T15:23:28;8.65;;;3.20;;
42246;SDS011;27913;42.722;23.268;2022-08-21T15:25:54;5.28;;;2.75;;
42246;SDS011;27913;42.722;23.268;2022-08-21T15:28:22;8.98;;;3.15;;
42246;SDS011;27913;42.722;23.268;2022-08-21T15:30:48;7.85;;;3.03;;
42246;SDS011;27913;42.722;23.268;2022-08-21T15:33:14;7.65;;;2.97;;
42246;SDS011;27913;42.722;23.268;2022-08-21T15:35:40;5.97;;;2.70;;
42246;SDS011;27913;42.722;23.268;2022-08-21T15:38:06;5.63;;;2.88;;
42246;SDS011;27913;42.722;23.268;2022-08-21T15:40:31;7.93;;;3.00;;
42246;SDS011;27913;42.722;23.268;2022-08-21T15:42:59;9.80;;;3.20;;
42246;SDS011;27913;42.722;23.268;2022-08-21T15:45:27;7.78;;;3.38;;
42246;SDS011;27913;42.722;23.268;2022-08-21T15:47:53;5.85;;;3.25;;
42246;SDS011;27913;42.722;23.268;2022-08-21T15:50:19;6.75;;;3.15;;
42246;SDS011;27913;42.722;23.268;2022-08-21T15:52:45;7.75;;;3.13;;
42246;SDS011;27913;42.722;23.268;2022-08-21T15:55:10;6.68;;;2.95;;
42246;SDS011;27913;42.722;23.268;2022-08-21T15:57:37;8.85;;;3.13;;
42246;SDS011;27913;42.722;23.268;2022-08-21T16:00:11;5.93;;;3.08;;
42246;SDS011;27913;42.722;23.268;2022-08-21T16:02:55;6.95;;;3.20;;